In Rescue
 
Open Full Screen Window  High Contrast Mode
Wind Gusting 22 knots
15
April 19, 2021 8:34 PM EDT
Weather Information
Wind Direction
  280 °
Wind Speed
  15 kt (17 mph)
Wind Gust
  22 kt (25 mph)
Altimeter
29.78 in
Visibility
10 SM
Temperature
00° C
32° F
Dewpoint
-07° C
19° F
Humidity
60%
1hr Rain Fall
00.00 in.
24hr Rain Fall
00.00 in.
Sky Condition
Broken @ 4,300 ft
Scattered @ 3,400 ft
VFR

METAR KMCD 200034Z AUTO 28015G22KT 10SM SCT034 BKN043 00/M07 A2978 RMK AO2 T00001075

FAA Disclaimer: The data displayed is for advisory purposes only and is not to be used for flight planning or operations.